ECDAB EDDH-EDDB
Flight info
| Callsign | ECDAB |
|---|---|
| Flight time | 0h 31m |
| Altitude | 33000 |
| Route | RAMAR6G RAMAR Z998 PITEN L619 VIBIS T209 OGBER OGBER1L |
| Aircraft | LJ35/M-SGHRWXYL/S |
Departure
| Time | 2026-05-07 17:41 |
|---|---|
| Airport | Hamburg Helmut Schmidt Airport (EDDH) |
Arrival
| Time | 2026-05-07 18:12 |
|---|---|
| Airport | Berlin Brandenburg Airport (EDDB) |
| Time | Latitude | Longitude | Altitude | Speed | Heading |
|---|---|---|---|---|---|
| 2026-05-07 17:19 | 53.62619 | 9.98798 | 40 ft | 0 kts | 63° |
| 2026-05-07 17:37 | 53.62619 | 9.98799 | 40 ft | 1 kts | 60° |
| 2026-05-07 17:37 | 53.62627 | 9.98785 | 40 ft | 4 kts | 226° |
| 2026-05-07 17:38 | 53.62620 | 9.98728 | 40 ft | 6 kts | 331° |
| 2026-05-07 17:38 | 53.62670 | 9.98684 | 40 ft | 10 kts | 333° |
| 2026-05-07 17:38 | 53.62732 | 9.98643 | 40 ft | 8 kts | 26° |
| 2026-05-07 17:38 | 53.62775 | 9.98724 | 40 ft | 11 kts | 51° |
| 2026-05-07 17:39 | 53.62829 | 9.98831 | 41 ft | 13 kts | 50° |
| 2026-05-07 17:39 | 53.62892 | 9.98958 | 41 ft | 15 kts | 50° |
| 2026-05-07 17:39 | 53.62962 | 9.99102 | 41 ft | 15 kts | 51° |
| 2026-05-07 17:39 | 53.63034 | 9.99245 | 42 ft | 15 kts | 43° |
| 2026-05-07 17:40 | 53.63137 | 9.99315 | 43 ft | 18 kts | 14° |
| 2026-05-07 17:40 | 53.63264 | 9.99371 | 45 ft | 15 kts | 11° |
| 2026-05-07 17:40 | 53.63406 | 9.99280 | 44 ft | 39 kts | 333° |
| 2026-05-07 17:40 | 53.63925 | 9.98832 | 44 ft | 131 kts | 333° |
| 2026-05-07 17:41 | 53.64870 | 9.97987 | 663 ft | 168 kts | 333° |
| 2026-05-07 17:41 | 53.65966 | 9.96954 | 1539 ft | 195 kts | 336° |
| 2026-05-07 17:41 | 53.67294 | 9.95920 | 2391 ft | 221 kts | 338° |
| 2026-05-07 17:41 | 53.68707 | 9.94900 | 3218 ft | 220 kts | 348° |
| 2026-05-07 17:42 | 53.70206 | 9.94676 | 4022 ft | 215 kts | 4° |
| 2026-05-07 17:42 | 53.71697 | 9.94798 | 4832 ft | 214 kts | 13° |
| 2026-05-07 17:42 | 53.73062 | 9.95709 | 5616 ft | 209 kts | 34° |
| 2026-05-07 17:42 | 53.74143 | 9.97306 | 6417 ft | 212 kts | 52° |
| 2026-05-07 17:43 | 53.74952 | 9.99668 | 7215 ft | 249 kts | 64° |
| 2026-05-07 17:43 | 53.75723 | 10.02335 | 8038 ft | 256 kts | 63° |
| 2026-05-07 17:43 | 53.76515 | 10.05058 | 8868 ft | 262 kts | 63° |
| 2026-05-07 17:43 | 53.77358 | 10.08020 | 9732 ft | 295 kts | 63° |
| 2026-05-07 17:44 | 53.78290 | 10.11174 | 10856 ft | 305 kts | 63° |
| 2026-05-07 17:44 | 53.79238 | 10.14523 | 12029 ft | 326 kts | 64° |
| 2026-05-07 17:44 | 53.80227 | 10.18079 | 13271 ft | 343 kts | 64° |
| 2026-05-07 17:44 | 53.81295 | 10.21790 | 14478 ft | 357 kts | 63° |
| 2026-05-07 17:45 | 53.82410 | 10.25630 | 15646 ft | 369 kts | 64° |
| 2026-05-07 17:45 | 53.83495 | 10.29623 | 16859 ft | 378 kts | 69° |
| 2026-05-07 17:45 | 53.84123 | 10.33988 | 18115 ft | 385 kts | 82° |
| 2026-05-07 17:45 | 53.84199 | 10.38535 | 19265 ft | 390 kts | 94° |
| 2026-05-07 17:46 | 53.83727 | 10.43071 | 20420 ft | 393 kts | 103° |
| 2026-05-07 17:46 | 53.83178 | 10.47010 | 21468 ft | 394 kts | 103° |
| 2026-05-07 17:46 | 53.82525 | 10.51772 | 22382 ft | 408 kts | 103° |
| 2026-05-07 17:46 | 53.81865 | 10.56591 | 22606 ft | 432 kts | 103° |
| 2026-05-07 17:47 | 53.81184 | 10.61600 | 22842 ft | 451 kts | 103° |
| 2026-05-07 17:47 | 53.80416 | 10.66852 | 23082 ft | 467 kts | 107° |
| 2026-05-07 17:47 | 53.79143 | 10.72001 | 23099 ft | 482 kts | 118° |
| 2026-05-07 17:47 | 53.77394 | 10.76907 | 23119 ft | 491 kts | 123° |
| 2026-05-07 17:48 | 53.75553 | 10.81821 | 23114 ft | 495 kts | 123° |
| 2026-05-07 17:48 | 53.73719 | 10.86757 | 23116 ft | 496 kts | 123° |
| 2026-05-07 17:48 | 53.71634 | 10.91406 | 23112 ft | 495 kts | 133° |
| 2026-05-07 17:48 | 53.69156 | 10.95420 | 23101 ft | 494 kts | 141° |
| 2026-05-07 17:49 | 53.66350 | 10.98737 | 23091 ft | 492 kts | 150° |
| 2026-05-07 17:49 | 53.63415 | 11.01715 | 23107 ft | 492 kts | 150° |
| 2026-05-07 17:49 | 53.60487 | 11.04707 | 23103 ft | 492 kts | 150° |
| 2026-05-07 17:49 | 53.57562 | 11.07698 | 23102 ft | 492 kts | 150° |
| 2026-05-07 17:50 | 53.54634 | 11.10672 | 23099 ft | 492 kts | 150° |
| 2026-05-07 17:50 | 53.51696 | 11.13645 | 23096 ft | 492 kts | 150° |
| 2026-05-07 17:50 | 53.48761 | 11.16616 | 23091 ft | 492 kts | 150° |
| 2026-05-07 17:50 | 53.45868 | 11.19554 | 23093 ft | 492 kts | 150° |
| 2026-05-07 17:51 | 53.43055 | 11.22827 | 23215 ft | 491 kts | 140° |
| 2026-05-07 17:51 | 53.40647 | 11.26875 | 23479 ft | 490 kts | 132° |
| 2026-05-07 17:51 | 53.38470 | 11.31268 | 23742 ft | 490 kts | 129° |
| 2026-05-07 17:51 | 53.36377 | 11.35764 | 23975 ft | 489 kts | 128° |
| 2026-05-07 17:52 | 53.34196 | 11.40144 | 24072 ft | 491 kts | 133° |
| 2026-05-07 17:52 | 53.31846 | 11.44283 | 24071 ft | 492 kts | 135° |
| 2026-05-07 17:52 | 53.29483 | 11.48433 | 24069 ft | 492 kts | 133° |
| 2026-05-07 17:52 | 53.27232 | 11.52753 | 24070 ft | 492 kts | 130° |
| 2026-05-07 17:53 | 53.24920 | 11.56966 | 24133 ft | 489 kts | 137° |
| 2026-05-07 17:53 | 53.22423 | 11.60604 | 25268 ft | 469 kts | 141° |
| 2026-05-07 17:53 | 53.19975 | 11.64123 | 26325 ft | 459 kts | 138° |
| 2026-05-07 17:53 | 53.17715 | 11.67800 | 27422 ft | 449 kts | 135° |
| 2026-05-07 17:54 | 53.15554 | 11.71485 | 28562 ft | 439 kts | 136° |
| 2026-05-07 17:54 | 53.13370 | 11.74954 | 29754 ft | 428 kts | 138° |
| 2026-05-07 17:54 | 53.11204 | 11.78258 | 30848 ft | 417 kts | 138° |
| 2026-05-07 17:54 | 53.09128 | 11.81532 | 31910 ft | 405 kts | 136° |
| 2026-05-07 17:55 | 53.07129 | 11.84771 | 32658 ft | 404 kts | 136° |
| 2026-05-07 17:55 | 53.05071 | 11.88048 | 32917 ft | 413 kts | 137° |
| 2026-05-07 17:55 | 53.02951 | 11.91356 | 33080 ft | 423 kts | 137° |
| 2026-05-07 17:55 | 53.00805 | 11.94725 | 33090 ft | 436 kts | 136° |
| 2026-05-07 17:56 | 52.98580 | 11.98249 | 33092 ft | 447 kts | 136° |
| 2026-05-07 17:56 | 52.96290 | 12.01860 | 32756 ft | 462 kts | 137° |
| 2026-05-07 17:56 | 52.93926 | 12.05552 | 32189 ft | 471 kts | 137° |
| 2026-05-07 17:56 | 52.91544 | 12.09290 | 31630 ft | 472 kts | 137° |
| 2026-05-07 17:57 | 52.89155 | 12.13041 | 30981 ft | 473 kts | 137° |
| 2026-05-07 17:57 | 52.87572 | 12.15518 | 30575 ft | 474 kts | 137° |
| 2026-05-07 17:57 | 52.84358 | 12.20520 | 29688 ft | 475 kts | 137° |
| 2026-05-07 17:57 | 52.81941 | 12.24294 | 28992 ft | 478 kts | 137° |
| 2026-05-07 17:58 | 52.79516 | 12.28071 | 28303 ft | 480 kts | 137° |
| 2026-05-07 17:58 | 52.77070 | 12.31862 | 27635 ft | 483 kts | 137° |
| 2026-05-07 17:58 | 52.74611 | 12.35669 | 26845 ft | 487 kts | 137° |
| 2026-05-07 17:58 | 52.72134 | 12.39505 | 26007 ft | 490 kts | 137° |
| 2026-05-07 17:59 | 52.69636 | 12.43370 | 25187 ft | 493 kts | 137° |
| 2026-05-07 17:59 | 52.67159 | 12.47192 | 24398 ft | 495 kts | 137° |
| 2026-05-07 17:59 | 52.64603 | 12.51124 | 23615 ft | 498 kts | 137° |
| 2026-05-07 17:59 | 52.62068 | 12.55023 | 22650 ft | 499 kts | 137° |
| 2026-05-07 18:00 | 52.59514 | 12.58940 | 21495 ft | 503 kts | 137° |
| 2026-05-07 18:00 | 52.57035 | 12.62742 | 20412 ft | 468 kts | 137° |
| 2026-05-07 18:00 | 52.54762 | 12.66223 | 19366 ft | 439 kts | 137° |
| 2026-05-07 18:00 | 52.52580 | 12.69556 | 18327 ft | 417 kts | 137° |
| 2026-05-07 18:01 | 52.50496 | 12.72732 | 17165 ft | 400 kts | 137° |
| 2026-05-07 18:01 | 52.48492 | 12.75785 | 16044 ft | 386 kts | 137° |
| 2026-05-07 18:01 | 52.46554 | 12.78733 | 14966 ft | 374 kts | 136° |
| 2026-05-07 18:01 | 52.44673 | 12.81594 | 13926 ft | 364 kts | 136° |
| 2026-05-07 18:02 | 52.41104 | 12.87005 | 11668 ft | 312 kts | 136° |
| 2026-05-07 18:02 | 52.39629 | 12.89238 | 10578 ft | 270 kts | 136° |
| 2026-05-07 18:02 | 52.38310 | 12.91237 | 9468 ft | 252 kts | 136° |
| 2026-05-07 18:03 | 52.36971 | 12.93263 | 8478 ft | 268 kts | 136° |
| 2026-05-07 18:03 | 52.35606 | 12.95321 | 7917 ft | 269 kts | 136° |
| 2026-05-07 18:03 | 52.34207 | 12.97420 | 7513 ft | 273 kts | 136° |
| 2026-05-07 18:03 | 52.32900 | 12.99395 | 7091 ft | 233 kts | 135° |
| 2026-05-07 18:04 | 52.31777 | 13.01091 | 6692 ft | 214 kts | 135° |
| 2026-05-07 18:04 | 52.31060 | 13.02175 | 6430 ft | 210 kts | 135° |
| 2026-05-07 18:04 | 52.29592 | 13.04393 | 5899 ft | 223 kts | 135° |
| 2026-05-07 18:04 | 52.28445 | 13.06116 | 5522 ft | 225 kts | 135° |
| 2026-05-07 18:05 | 52.27305 | 13.07882 | 5144 ft | 224 kts | 128° |
| 2026-05-07 18:05 | 52.26697 | 13.10090 | 4766 ft | 209 kts | 94° |
| 2026-05-07 18:05 | 52.26791 | 13.11637 | 4501 ft | 200 kts | 70° |
| 2026-05-07 18:05 | 52.27903 | 13.13865 | 4092 ft | 185 kts | 40° |
| 2026-05-07 18:06 | 52.28491 | 13.14828 | 4068 ft | 170 kts | 55° |
| 2026-05-07 18:06 | 52.29008 | 13.16344 | 4070 ft | 144 kts | 62° |
| 2026-05-07 18:06 | 52.29456 | 13.17720 | 4065 ft | 131 kts | 59° |
| 2026-05-07 18:06 | 52.29866 | 13.18982 | 4002 ft | 126 kts | 66° |
| 2026-05-07 18:07 | 52.30171 | 13.20373 | 3929 ft | 129 kts | 71° |
| 2026-05-07 18:07 | 52.30446 | 13.21810 | 3749 ft | 138 kts | 70° |
| 2026-05-07 18:07 | 52.30761 | 13.23288 | 3622 ft | 137 kts | 68° |
| 2026-05-07 18:07 | 52.31126 | 13.24741 | 3403 ft | 142 kts | 64° |
| 2026-05-07 18:08 | 52.31548 | 13.26243 | 3164 ft | 145 kts | 64° |
| 2026-05-07 18:08 | 52.31949 | 13.27753 | 2968 ft | 146 kts | 67° |
| 2026-05-07 18:08 | 52.32299 | 13.29316 | 2775 ft | 146 kts | 68° |
| 2026-05-07 18:08 | 52.32632 | 13.30888 | 2508 ft | 145 kts | 71° |
| 2026-05-07 18:09 | 52.32939 | 13.32425 | 2283 ft | 139 kts | 70° |
| 2026-05-07 18:09 | 52.33260 | 13.33900 | 2040 ft | 135 kts | 68° |
| 2026-05-07 18:09 | 52.33592 | 13.35284 | 1836 ft | 132 kts | 67° |
| 2026-05-07 18:09 | 52.33964 | 13.36682 | 1634 ft | 131 kts | 67° |
| 2026-05-07 18:10 | 52.34302 | 13.38083 | 1460 ft | 133 kts | 68° |
| 2026-05-07 18:10 | 52.34623 | 13.39463 | 1346 ft | 131 kts | 66° |
| 2026-05-07 18:10 | 52.34973 | 13.40864 | 1184 ft | 132 kts | 67° |
| 2026-05-07 18:10 | 52.35306 | 13.42269 | 999 ft | 134 kts | 68° |
| 2026-05-07 18:11 | 52.35639 | 13.43699 | 812 ft | 136 kts | 69° |
| 2026-05-07 18:11 | 52.35977 | 13.45141 | 662 ft | 134 kts | 69° |
| 2026-05-07 18:11 | 52.36317 | 13.46596 | 431 ft | 135 kts | 70° |
| 2026-05-07 18:11 | 52.36652 | 13.48000 | 243 ft | 135 kts | 69° |
| 2026-05-07 18:12 | 52.36981 | 13.49390 | 152 ft | 122 kts | 69° |
| 2026-05-07 18:12 | 52.37242 | 13.50499 | 151 ft | 66 kts | 69° |
| 2026-05-07 18:12 | 52.37310 | 13.50909 | 152 ft | 23 kts | 95° |
| 2026-05-07 18:12 | 52.37298 | 13.51075 | 154 ft | 7 kts | 99° |
| 2026-05-07 18:13 | 52.37289 | 13.51171 | 156 ft | 13 kts | 99° |
| 2026-05-07 18:13 | 52.37272 | 13.51336 | 156 ft | 17 kts | 100° |
| 2026-05-07 18:13 | 52.37258 | 13.51545 | 154 ft | 21 kts | 84° |
| 2026-05-07 18:13 | 52.37310 | 13.51779 | 154 ft | 23 kts | 70° |
| 2026-05-07 18:14 | 52.37356 | 13.51970 | 154 ft | 13 kts | 80° |
| 2026-05-07 18:14 | 52.37317 | 13.52054 | 153 ft | 10 kts | 162° |
| 2026-05-07 18:14 | 52.37248 | 13.52097 | 154 ft | 12 kts | 158° |
| 2026-05-07 18:14 | 52.37200 | 13.52147 | 155 ft | 5 kts | 155° |
| 2026-05-07 18:15 | 52.37158 | 13.52129 | 154 ft | 9 kts | 255° |
| 2026-05-07 18:15 | 52.37154 | 13.52051 | 155 ft | 0 kts | 249° |